Latest Weather Observations for Mount William

IDV60801

Issued at 5:02 pm EST Saturday 30 July 2016 (issued every 30 minutes, with the page automatically refreshed every 10 minutes)

About weather observations | Map of weather stations | Latest weather observations for VIC | Other Formats
Station Details ID: 079103 Name: MOUNT WILLIAM Lat: -37.30 Lon: 142.60 Height: 1150.0 m
Data from the previous 72 hours. | See also: Recent months at Mount William
Date/Time
EST
Temp
°C
App
Temp
°C
Dew
Point
°C
Rel
Hum
%
Delta-T
°C
Wind Press
QNH
hPa
Press
MSL
hPa
Rain since
9am
mm
Dir  Spd
km/h
Gust
km/h
Spd
kts
Gust
kts
30/05:00pm 4.6 -4.8 4.5 99 0.0 NNW 43 61 23 33 - - 0.0
30/04:35pm 4.7 -3.9 4.6 99 0.0 NW 39 61 21 33 - - 0.0
30/04:30pm 4.8 -4.2 4.7 99 0.0 NNW 41 57 22 31 - - 0.0
30/04:01pm 4.5 -4.5 4.4 99 0.0 NNW 41 63 22 34 - - 0.0
30/04:00pm 4.5 -4.5 4.4 99 0.0 NNW 41 57 22 31 - - 0.0
30/03:32pm 4.5 -4.1 4.4 99 0.0 NW 39 59 21 32 - - 0.0
30/03:30pm 4.5 -4.5 4.4 99 0.0 NW 41 59 22 32 - - 0.0
30/03:00pm 4.5 -4.1 4.4 99 0.0 NNW 39 59 21 32 - - 0.0
30/02:30pm 4.4 -5.2 4.3 99 0.0 NNW 44 74 24 40 - - 0.0
30/02:12pm 4.2 -6.2 4.1 99 0.0 NNW 48 82 26 44 - - 0.0
30/02:00pm 4.2 -4.5 4.1 99 0.0 NNW 39 59 21 32 - - 0.0
30/01:30pm 4.0 -5.5 3.9 99 0.0 NNW 43 65 23 35 - - 0.0
30/01:08pm 4.1 -4.2 4.0 99 0.0 NW 37 57 20 31 - - 0.0
30/01:00pm 4.2 -3.7 4.1 99 0.0 NW 35 50 19 27 - - 0.0
30/12:51pm 4.3 -4.4 4.2 99 0.0 NW 39 57 21 31 - - 0.0
30/12:30pm 4.3 -4.4 4.2 99 0.0 NW 39 56 21 30 - - 0.0
30/12:00pm 4.0 -3.6 3.9 99 0.0 NW 33 48 18 26 - - 0.0
30/11:54am 4.1 -2.9 4.0 99 0.0 NW 30 48 16 26 - - 0.0
30/11:30am 3.9 -4.1 3.8 99 0.0 NW 35 50 19 27 - - 0.0
30/11:15am 3.8 -3.7 3.7 99 0.0 NW 32 50 17 27 - - 0.0
30/11:00am 3.8 -4.2 3.7 99 0.0 NW 35 48 19 26 - - 0.0
30/10:33am 3.9 -2.8 3.8 99 0.0 NW 28 50 15 27 - - 0.0
30/10:30am 3.8 -3.3 3.7 99 0.0 NW 30 44 16 24 - - 0.0
30/10:00am 3.8 -2.9 3.7 99 0.0 NW 28 48 15 26 - - 0.0
30/09:30am 3.5 -3.6 3.4 99 0.0 NW 30 50 16 27 - - 0.0
30/09:05am 3.4 -3.4 3.3 99 0.0 NW 28 48 15 26 - - 0.0
30/09:00am 3.3 -3.9 3.2 99 0.0 NW 30 46 16 25 - - 0.0
30/08:42am 3.4 -3.4 3.3 99 0.0 NW 28 52 15 28 - - 0.0
30/08:30am 3.5 -2.9 3.4 99 0.0 NW 26 44 14 24 - - 0.0
30/08:21am 3.7 -3.0 3.6 99 0.0 NW 28 46 15 25 - - 0.0
30/08:00am 3.7 -4.7 3.6 99 0.0 NW 37 46 20 25 - - 0.0
30/07:30am 3.8 -2.9 3.7 99 0.0 NW 28 39 15 21 - - 0.0
30/07:00am 3.7 -3.8 3.6 99 0.0 NNW 32 39 17 21 - - 0.0
30/06:30am 3.8 1.3 3.7 99 0.0 NW 6 35 3 19 - - 0.0
30/06:00am 4.0 1.9 3.9 99 0.0 NW 4 30 2 16 - - 0.0
30/05:30am 3.8 2.4 3.7 99 0.0 CALM 0 0 0 0 - - 0.0
30/05:00am 3.8 2.4 3.7 99 0.0 CALM 0 0 0 0 - - 0.0
30/04:30am 3.5 2.1 3.4 99 0.0 CALM 0 0 0 0 - - 0.0
30/04:00am 4.1 2.8 4.0 99 0.0 CALM 0 0 0 0 - - 0.0
30/03:30am 4.1 2.8 4.0 99 0.0 CALM 0 0 0 0 - - 0.0
30/03:00am 3.5 2.1 3.4 99 0.0 CALM 0 0 0 0 - - 0.0
30/02:30am 3.3 1.8 3.2 99 0.0 CALM 0 0 0 0 - - 0.0
30/02:00am 3.8 2.4 3.7 99 0.0 CALM 0 0 0 0 - - 0.0
30/01:30am 3.6 2.2 3.5 99 0.0 CALM 0 0 0 0 - - 0.0
30/01:00am 3.7 2.3 3.6 99 0.0 CALM 0 0 0 0 - - 0.0
30/12:30am 4.1 2.8 4.0 99 0.0 CALM 0 0 0 0 - - 0.0
30/12:00am 4.6 3.4 4.5 99 0.0 CALM 0 0 0 0 - - 0.0
 
Date/Time
EST
Temp
°C
App
Temp
°C
Dew
Point
°C
Rel
Hum
%
Delta-T
°C
Wind Press
QNH
hPa
Press
MSL
hPa
Rain since
9am
mm
Dir  Spd
km/h
Gust
km/h
Spd
kts
Gust
kts
29/11:30pm 4.7 3.5 4.6 99 0.0 CALM 0 0 0 0 - - 0.0
29/11:00pm 4.7 3.5 4.6 99 0.0 CALM 0 0 0 0 - - 0.0
29/10:30pm 4.9 3.7 4.8 99 0.0 CALM 0 0 0 0 - - 0.0
29/10:00pm 5.2 4.1 5.2 100 0.0 CALM 0 0 0 0 - - 0.0
29/09:30pm 5.3 4.2 5.3 100 0.0 CALM 0 0 0 0 - - 0.0
29/09:00pm 5.2 4.1 5.2 100 0.0 CALM 0 0 0 0 - - 0.0
29/08:30pm 5.2 4.1 5.2 100 0.0 CALM 0 0 0 0 - - 0.0
29/08:00pm 5.2 4.1 5.2 100 0.0 CALM 0 0 0 0 - - 0.0
29/07:30pm 5.1 4.0 5.1 100 0.0 CALM 0 0 0 0 - - 0.0
29/07:00pm 5.2 4.1 5.2 100 0.0 CALM 0 30 0 16 - - 0.0
29/06:30pm 5.1 4.0 5.0 99 0.0 CALM 0 0 0 0 - - 0.0
29/06:00pm 4.9 3.4 4.8 99 0.0 WSW 2 30 1 16 - - 0.0
29/05:30pm 4.7 2.7 4.6 99 0.0 WSW 4 33 2 18 - - 0.0
29/05:00pm 4.8 1.9 4.7 99 0.0 WSW 9 33 5 18 - - 0.0
29/04:30pm 4.7 0.6 4.6 99 0.0 WSW 15 37 8 20 - - 0.0
29/04:00pm 4.8 1.5 4.7 99 0.0 WSW 11 39 6 21 - - 0.0
29/03:30pm 5.3 3.1 5.3 100 0.0 WSW 6 39 3 21 - - 0.0
29/03:00pm 5.5 3.7 5.5 100 0.0 WSW 4 41 2 22 - - 0.0
29/02:30pm 5.6 4.2 5.6 100 0.0 W 2 35 1 19 - - 0.0
29/02:00pm 5.6 3.5 5.6 100 0.0 WSW 6 33 3 18 - - 0.0
29/01:30pm 5.6 3.8 5.6 100 0.0 W 4 33 2 18 - - 0.0
29/01:00pm 5.4 3.2 5.4 100 0.0 W 6 35 3 19 - - 0.0
29/12:30pm 5.3 3.9 5.3 100 0.0 W 2 33 1 18 - - 0.0
29/12:00pm 5.1 2.8 5.0 99 0.0 WSW 6 37 3 20 - - 0.0
29/11:30am 4.8 1.5 4.7 99 0.0 W 11 43 6 23 - - 0.0
29/11:00am 4.6 1.3 4.5 99 0.0 WSW 11 35 6 19 - - 0.0
29/10:30am 4.4 0.3 4.3 99 0.0 WSW 15 39 8 21 - - 0.0
29/10:00am 4.2 -2.4 4.1 99 0.0 W 28 43 15 23 - - 0.0
29/09:30am 4.2 -2.4 4.1 99 0.0 W 28 43 15 23 - - 0.0
29/09:00am 4.1 -3.5 4.0 99 0.0 W 33 44 18 24 - - 0.0
29/08:30am 4.2 -3.2 4.1 99 0.0 W 32 44 17 24 - - 0.0
29/08:00am 4.2 -3.4 4.1 99 0.0 W 33 48 18 26 - - 0.0
29/07:44am 4.1 -3.3 4.0 99 0.0 W 32 52 17 28 - - 0.0
29/07:30am 4.1 -3.9 4.0 99 0.0 W 35 50 19 27 - - 0.0
29/07:00am 4.2 -4.5 4.1 99 0.0 W 39 52 21 28 - - 0.0
29/06:30am 4.2 -4.1 4.1 99 0.0 W 37 46 20 25 - - 0.0
29/06:00am 4.1 -4.2 4.0 99 0.0 W 37 57 20 31 - - 0.0
29/05:30am 4.0 -4.4 3.9 99 0.0 W 37 56 20 30 - - 0.0
29/05:15am 4.1 -4.6 4.0 99 0.0 W 39 61 21 33 - - 0.0
29/05:00am 4.0 -4.0 3.9 99 0.0 W 35 48 19 26 - - 0.0
29/04:30am 4.1 -3.9 4.0 99 0.0 W 35 54 19 29 - - 0.0
29/04:00am 4.0 -4.4 3.9 99 0.0 W 37 56 20 30 - - 0.0
29/03:38am 4.0 -4.7 3.9 99 0.0 W 39 59 21 32 - - 0.0
29/03:30am 4.0 -4.4 3.9 99 0.0 W 37 52 20 28 - - 0.0
29/03:15am 3.9 -5.2 3.8 99 0.0 W 41 61 22 33 - - 0.0
29/03:00am 3.9 -5.2 3.8 99 0.0 W 41 57 22 31 - - 0.0
29/02:30am 3.8 -5.4 3.7 99 0.0 W 41 54 22 29 - - 0.0
29/02:00am 3.9 -5.6 3.8 99 0.0 W 43 59 23 32 - - 0.0
29/01:30am 3.9 -4.9 3.8 99 0.0 W 39 50 21 27 - - 0.0
29/01:00am 3.8 -5.0 3.7 99 0.0 W 39 59 21 32 - - 0.0
29/12:38am 3.8 -5.0 3.7 99 0.0 W 39 63 21 34 - - 0.0
29/12:30am 3.7 -4.3 3.6 99 0.0 WSW 35 46 19 25 - - 0.0
29/12:00am 3.7 -5.1 3.6 99 0.0 WSW 39 54 21 29 - - 0.0
 
Date/Time
EST
Temp
°C
App
Temp
°C
Dew
Point
°C
Rel
Hum
%
Delta-T
°C
Wind Press
QNH
hPa
Press
MSL
hPa
Rain since
9am
mm
Dir  Spd
km/h
Gust
km/h
Spd
kts
Gust
kts
28/11:54pm 3.8 -4.2 3.7 99 0.0 WSW 35 54 19 29 - - 0.0
28/11:30pm 3.7 -6.1 3.6 99 0.0 WSW 44 57 24 31 - - 0.0
28/11:06pm 3.6 -5.6 3.5 99 0.0 WSW 41 59 22 32 - - 0.0
28/11:00pm 3.6 -6.0 3.5 99 0.0 W 43 59 23 32 - - 0.0
28/10:48pm 3.6 -4.5 3.5 99 0.0 WSW 35 61 19 33 - - 0.0
28/10:30pm 3.6 -4.8 3.5 99 0.0 W 37 50 20 27 - - 0.0
28/10:07pm 3.5 -4.0 3.4 99 0.0 W 32 50 17 27 - - 0.0
28/10:00pm 3.5 -4.2 3.4 99 0.0 W 33 52 18 28 - - 0.0
28/09:36pm 3.3 -4.2 3.2 99 0.0 W 32 54 17 29 - - 0.0
28/09:30pm 3.3 -4.4 3.2 99 0.0 W 33 50 18 27 - - 0.0
28/09:00pm 3.4 -3.7 3.3 99 0.0 W 30 52 16 28 - - 0.0
28/08:34pm 3.2 -4.0 3.1 99 0.0 W 30 50 16 27 - - 0.0
28/08:30pm 3.2 -4.4 3.1 99 0.0 W 32 50 17 27 - - 0.0
28/08:00pm 3.2 -5.3 3.1 99 0.0 WSW 37 57 20 31 - - 0.0
28/07:59pm 3.2 -5.3 3.1 99 0.0 WSW 37 57 20 31 - - 0.0
28/07:30pm 3.3 -5.2 3.2 99 0.0 W 37 54 20 29 - - 0.0
28/07:00pm 3.4 -3.4 3.3 99 0.0 W 28 46 15 25 - - 0.0
28/06:47pm 3.5 -3.2 3.4 99 0.0 W 28 50 15 27 - - 0.0
28/06:30pm 3.6 -3.1 3.5 99 0.0 W 28 43 15 23 - - 0.0
28/06:27pm 3.6 -3.5 3.5 99 0.0 W 30 48 16 26 - - 0.0
28/06:00pm 3.7 -4.7 3.6 99 0.0 W 37 50 20 27 - - 0.0
28/05:50pm 3.6 -4.1 3.5 99 0.0 W 33 57 18 31 - - 0.0
28/05:30pm 3.5 -5.0 3.4 99 0.0 WSW 37 52 20 28 - - 0.0
28/05:00pm 3.9 -4.5 3.8 99 0.0 WSW 37 52 20 28 - - 0.0
28/04:30pm 4.1 -3.5 4.0 99 0.0 W 33 43 18 23 - - 0.0
28/04:00pm 4.3 -4.4 4.2 99 0.0 WSW 39 46 21 25 - - 0.0
28/03:30pm 4.6 -4.4 4.5 99 0.0 WSW 41 46 22 25 - - 0.0
28/03:00pm 4.5 -4.5 4.4 99 0.0 WSW 41 46 22 25 - - 0.0
28/02:30pm 4.5 -5.9 4.4 99 0.0 WSW 48 59 26 32 - - 0.0
28/02:00pm 4.2 -5.3 4.1 99 0.0 WSW 43 54 23 29 - - 0.0
28/01:30pm 4.1 -5.4 4.0 99 0.0 WSW 43 54 23 29 - - 0.0
28/01:00pm 4.0 -5.1 3.9 99 0.0 WSW 41 52 22 28 - - 0.0
28/12:30pm 3.9 -4.9 3.8 99 0.0 WSW 39 56 21 30 - - 0.0
28/12:00pm 3.6 -6.2 3.5 99 0.0 WSW 44 59 24 32 - - 0.0
28/11:34am 3.5 -5.3 3.4 99 0.0 WSW 39 57 21 31 - - 0.0
28/11:30am 3.5 -6.1 3.4 99 0.0 WSW 43 57 23 31 - - 0.0
28/11:11am 3.3 -3.5 3.2 99 0.0 WSW 28 46 15 25 - - 0.0
28/11:00am 3.2 -2.8 3.1 99 0.0 WSW 24 48 13 26 - - 0.0
28/10:30am 2.9 -4.7 2.8 99 0.0 WSW 32 56 17 30 - - 0.0
28/10:00am 2.7 -4.6 2.6 99 0.0 WSW 30 50 16 27 - - 0.0
28/09:51am 2.7 -1.0 2.6 99 0.0 WSW 11 48 6 26 - - 0.0
28/09:30am 2.7 0.4 2.6 99 0.0 WSW 4 39 2 21 - - 0.0
28/09:00am 2.5 -0.4 2.4 99 0.0 WSW 7 41 4 22 - - 0.0
28/08:37am 2.5 -4.8 2.4 99 0.0 WSW 30 59 16 32 - - 0.0
28/08:30am 2.5 -4.0 2.4 99 0.0 WSW 26 46 14 25 - - 0.0
28/08:00am 2.2 -2.3 2.1 99 0.0 W 15 43 8 23 - - 0.0
28/07:30am 2.4 -1.3 2.3 99 0.0 W 11 43 6 23 - - 0.0
28/07:00am 2.5 0.5 2.4 99 0.0 W 2 32 1 17 - - 0.0
28/06:30am 2.4 -2.1 2.3 99 0.0 W 15 44 8 24 - - 0.0
28/06:00am 2.4 0.0 2.3 99 0.0 W 4 37 2 20 - - 0.0
28/05:30am 2.4 -0.9 2.3 99 0.0 W 9 41 5 22 - - 0.0
28/05:00am 2.4 -1.7 2.3 99 0.0 W 13 46 7 25 - - 0.0
28/04:30am 2.3 -1.0 2.2 99 0.0 W 9 33 5 18 - - 0.0
28/04:00am 2.4 -1.3 2.3 99 0.0 W 11 35 6 19 - - 0.0
28/03:30am 2.3 -2.2 2.2 99 0.0 W 15 39 8 21 - - 0.0
28/03:00am 2.2 -2.7 2.1 99 0.0 WSW 17 39 9 21 - - 0.0
28/02:30am 2.2 -1.9 2.1 99 0.0 WSW 13 39 7 21 - - 0.0
28/02:00am 2.1 -3.2 2.0 99 0.0 WSW 19 44 10 24 - - 0.0
28/01:30am 2.2 -2.7 2.1 99 0.0 WSW 17 48 9 26 - - 0.0
28/01:00am 2.1 -2.8 2.0 99 0.0 WSW 17 46 9 25 - - 0.0
28/12:30am 2.1 -2.8 2.0 99 0.0 WSW 17 39 9 21 - - 0.0
28/12:00am 2.1 -3.8 2.0 99 0.0 WSW 22 48 12 26 - - 0.0
 
Date/Time
EST
Temp
°C
App
Temp
°C
Dew
Point
°C
Rel
Hum
%
Delta-T
°C
Wind Press
QNH
hPa
Press
MSL
hPa
Rain since
9am
mm
Dir  Spd
km/h
Gust
km/h
Spd
kts
Gust
kts
27/11:30pm 2.1 -1.7 2.0 99 0.0 WSW 11 44 6 24 - - 0.0
27/11:00pm 2.0 -5.8 1.9 99 0.0 WSW 32 54 17 29 - - 0.0
27/10:38pm 1.9 -5.1 1.8 99 0.0 WSW 28 46 15 25 - - 0.0
27/10:30pm 1.8 -6.2 1.7 99 0.0 WSW 33 50 18 27 - - 0.0
27/10:23pm 1.8 -5.2 1.7 99 0.0 WSW 28 50 15 27 - - 0.0
27/10:00pm 1.6 -3.0 1.5 99 0.0 WSW 15 44 8 24 - - 0.0
27/09:30pm 1.6 -4.7 1.5 99 0.0 WSW 24 50 13 27 - - 0.0
27/09:00pm 1.4 -4.6 1.3 99 0.0 WSW 22 43 12 23 - - 0.0
27/08:33pm 1.3 -4.1 1.2 99 0.0 WSW 19 54 10 29 - - 0.0
27/08:30pm 1.3 -2.6 1.2 99 0.0 WSW 11 54 6 29 - - 0.0
27/08:00pm 1.3 -3.4 1.2 99 0.0 WSW 15 44 8 24 - - 0.0
27/07:30pm 1.1 -8.1 1.0 99 0.0 WSW 39 61 21 33 - - 0.0
27/07:00pm 1.0 -6.5 0.9 99 0.0 WSW 30 52 16 28 - - 0.0
27/06:59pm 1.0 -6.2 0.9 99 0.0 WSW 28 50 15 27 - - 0.0
27/06:30pm 1.0 -3.7 0.9 99 0.0 WSW 15 46 8 25 - - 0.0
27/06:09pm 1.1 -6.1 1.0 99 0.0 WSW 28 54 15 29 - - 0.0
27/06:00pm 1.1 -4.5 1.0 99 0.0 WSW 20 50 11 27 - - 0.0
27/05:30pm 0.9 -3.1 0.8 99 0.0 WSW 11 41 6 22 - - 0.0

Other Formats:

Comma delimited format used in spreadsheet applications
http://www.bom.gov.au/fwo/IDV60801/IDV60801.94833.axf

JavaScript Object Notation format (JSON) in row-major order
http://www.bom.gov.au/fwo/IDV60801/IDV60801.94833.json